createdAt,value
2024-02-26T00:01:51.569Z,93069.38
2024-02-26T00:04:18.232Z,93063.66
2024-02-26T00:06:45.223Z,93062.63
2024-02-26T00:09:12.008Z,93053.50
2024-02-26T00:11:39.256Z,93055.41
2024-02-26T00:14:06.175Z,93049.63
2024-02-26T00:16:32.852Z,93049.34
2024-02-26T00:19:01.136Z,93045.69
2024-02-26T00:21:29.293Z,93055.53
2024-02-26T00:23:55.975Z,93052.69
2024-02-26T00:26:22.654Z,93031.50
2024-02-26T00:28:49.256Z,93035.47
2024-02-26T00:31:15.984Z,93033.94
2024-02-26T00:33:42.802Z,93028.19
2024-02-26T00:36:10.896Z,93031.88
2024-02-26T00:38:38.224Z,93027.91
2024-02-26T00:41:04.871Z,93054.00
2024-02-26T00:43:31.510Z,93047.28
2024-02-26T00:45:58.216Z,93059.13
2024-02-26T00:48:26.921Z,93054.47
2024-02-26T00:50:53.664Z,93043.88
2024-02-26T00:53:21.680Z,93043.03
2024-02-26T00:55:48.309Z,93039.38
2024-02-26T00:58:15.259Z,93045.13
2024-02-26T01:00:42.003Z,93029.91
2024-02-26T01:03:08.810Z,93028.63
2024-02-26T01:05:35.569Z,93028.13
2024-02-26T01:08:02.395Z,93022.25
2024-02-26T01:10:30.462Z,93027.91
2024-02-26T01:12:57.178Z,93031.41
2024-02-26T01:15:25.035Z,93040.22
2024-02-26T01:17:52.427Z,93032.34
2024-02-26T01:20:19.226Z,93036.72
2024-02-26T01:22:45.950Z,93032.59
2024-02-26T01:25:13.379Z,93034.78
2024-02-26T01:27:43.639Z,93036.22
2024-02-26T01:30:11.697Z,93035.19
2024-02-26T01:32:38.446Z,93028.13
2024-02-26T01:35:06.336Z,93036.00
2024-02-26T01:37:33.075Z,93030.94
2024-02-26T01:39:59.736Z,93019.28
2024-02-26T01:42:26.549Z,93017.66
2024-02-26T01:44:54.582Z,93017.28
2024-02-26T01:47:21.295Z,93025.19
2024-02-26T01:49:48.768Z,93009.16
2024-02-26T01:52:16.823Z,93019.34
2024-02-26T01:54:46.269Z,93023.47
2024-02-26T01:57:13.690Z,93018.38
2024-02-26T01:59:41.308Z,93018.38
2024-02-26T02:02:11.231Z,93005.41
2024-02-26T02:04:38.368Z,93010.41
2024-02-26T02:07:06.077Z,92998.56
2024-02-26T02:09:33.493Z,93004.94
2024-02-26T02:12:01.422Z,93000.28
2024-02-26T02:14:28.153Z,93002.56
2024-02-26T02:16:54.748Z,92997.84
2024-02-26T02:19:22.722Z,92994.53
2024-02-26T02:21:50.731Z,93004.47
2024-02-26T02:24:17.452Z,92991.28
2024-02-26T02:26:44.194Z,93001.59
2024-02-26T02:29:11.849Z,93002.06
2024-02-26T02:31:38.813Z,92990.78
2024-02-26T02:34:05.772Z,92995.47
2024-02-26T02:36:33.666Z,92996.00
2024-02-26T02:39:01.785Z,92994.06
2024-02-26T02:41:30.918Z,92991.56
2024-02-26T02:43:57.635Z,92989.00
2024-02-26T02:46:24.269Z,92995.97
2024-02-26T02:48:51.293Z,92982.06
2024-02-26T02:51:18.175Z,92990.50
2024-02-26T02:53:44.886Z,92984.59
2024-02-26T02:56:13.492Z,92989.41
2024-02-26T02:58:40.217Z,92981.72
2024-02-26T03:01:06.947Z,92989.19
2024-02-26T03:03:33.600Z,92984.19
2024-02-26T03:06:00.417Z,92986.66
2024-02-26T03:08:27.285Z,92984.28
2024-02-26T03:10:54.224Z,92989.09
2024-02-26T03:13:22.421Z,92981.53
2024-02-26T03:15:49.108Z,92985.13
2024-02-26T03:18:15.922Z,92984.00
2024-02-26T03:20:42.618Z,92976.50
2024-02-26T03:23:12.973Z,92970.31
2024-02-26T03:25:39.847Z,92980.41
2024-02-26T03:28:06.851Z,92967.09
2024-02-26T03:30:35.630Z,92974.88
2024-02-26T03:33:02.452Z,92971.25
2024-02-26T03:35:29.181Z,92974.00
2024-02-26T03:37:55.798Z,92974.44
2024-02-26T03:40:22.511Z,92974.13
2024-02-26T03:42:49.204Z,92974.34
2024-02-26T03:45:15.895Z,92976.84
2024-02-26T03:47:43.993Z,92968.88
2024-02-26T03:50:10.817Z,92967.81
2024-02-26T03:52:37.755Z,92961.00
2024-02-26T03:55:05.025Z,92969.38
2024-02-26T03:57:31.676Z,92970.38
2024-02-26T03:59:58.387Z,92963.06
2024-02-26T04:02:26.565Z,92966.97
2024-02-26T04:04:54.562Z,92965.06
2024-02-26T04:07:21.360Z,92977.50
2024-02-26T04:09:48.038Z,92970.09
2024-02-26T04:12:15.629Z,92977.28
2024-02-26T04:14:42.519Z,92969.16
2024-02-26T04:17:09.345Z,92974.13
2024-02-26T04:19:36.152Z,92970.13
2024-02-26T04:22:04.674Z,92967.63
2024-02-26T04:24:31.346Z,92969.03
2024-02-26T04:26:58.121Z,92970.25
2024-02-26T04:29:24.749Z,92964.81
2024-02-26T04:31:51.395Z,92967.47
2024-02-26T04:34:18.236Z,92962.19
2024-02-26T04:36:44.956Z,92965.47
2024-02-26T04:39:12.928Z,92970.03
2024-02-26T04:41:39.589Z,92966.75
2024-02-26T04:44:06.408Z,92961.56
2024-02-26T04:46:33.050Z,92960.56
2024-02-26T04:48:59.871Z,92968.47
2024-02-26T04:51:27.128Z,92962.16
2024-02-26T04:53:54.862Z,92962.75
2024-02-26T04:56:23.064Z,92973.94
2024-02-26T04:58:49.688Z,92974.16
2024-02-26T05:01:18.090Z,92975.22
2024-02-26T05:03:45.179Z,92973.22
2024-02-26T05:06:12.099Z,92972.72
2024-02-26T05:08:39.764Z,92979.03
2024-02-26T05:11:07.130Z,92990.81
2024-02-26T05:13:35.162Z,92984.00
2024-02-26T05:16:01.830Z,92987.13
2024-02-26T05:18:29.023Z,92999.19
2024-02-26T05:20:55.746Z,92995.16
2024-02-26T05:23:24.140Z,92999.09
2024-02-26T05:25:50.956Z,93002.72
2024-02-26T05:28:17.674Z,93002.59
2024-02-26T05:30:45.703Z,93008.63
2024-02-26T05:33:14.391Z,93010.38
2024-02-26T05:35:42.840Z,93009.97
2024-02-26T05:38:09.433Z,93003.28
2024-02-26T05:40:36.112Z,93006.78
2024-02-26T05:43:02.721Z,92993.59
2024-02-26T05:45:29.451Z,92998.38
2024-02-26T05:47:57.695Z,93000.00
2024-02-26T05:50:24.334Z,92999.00
2024-02-26T05:52:50.910Z,93001.00
2024-02-26T05:55:17.582Z,93001.25
2024-02-26T05:57:44.228Z,93004.31
2024-02-26T06:00:15.549Z,93003.19
2024-02-26T06:02:42.797Z,93003.31
2024-02-26T06:05:11.034Z,93015.56
2024-02-26T06:07:37.654Z,93017.59
2024-02-26T06:10:05.897Z,93016.09
2024-02-26T06:12:32.702Z,93017.31
2024-02-26T06:15:02.115Z,93024.41
2024-02-26T06:17:29.356Z,93034.56
2024-02-26T06:19:56.184Z,93028.06
2024-02-26T06:22:24.175Z,93036.22
2024-02-26T06:24:50.789Z,93044.59
2024-02-26T06:27:17.473Z,93060.88
2024-02-26T06:29:44.311Z,93048.00
2024-02-26T06:32:11.097Z,93051.47
2024-02-26T06:34:39.524Z,93056.56
2024-02-26T06:37:06.633Z,93062.97
2024-02-26T06:39:35.042Z,93064.72
2024-02-26T06:42:02.619Z,93062.91
2024-02-26T06:44:35.462Z,93070.34
2024-02-26T06:47:02.778Z,93070.28
2024-02-26T06:49:30.206Z,93072.06
2024-02-26T06:51:57.146Z,93069.56
2024-02-26T06:54:23.867Z,93081.69
2024-02-26T06:56:51.897Z,93082.75
2024-02-26T06:59:18.619Z,93077.50
2024-02-26T07:01:45.319Z,93081.84
2024-02-26T07:04:12.273Z,93079.78
2024-02-26T07:06:39.128Z,93078.44
2024-02-26T07:09:05.985Z,93088.38
2024-02-26T07:11:32.680Z,93081.16
2024-02-26T07:14:02.033Z,93080.31
2024-02-26T07:16:28.737Z,93088.34
2024-02-26T07:18:55.444Z,93088.44
2024-02-26T07:21:22.453Z,93088.59
2024-02-26T07:23:49.203Z,93100.53
2024-02-26T07:26:16.060Z,93099.84
2024-02-26T07:28:42.676Z,93100.38
2024-02-26T07:31:10.660Z,93105.59
2024-02-26T07:33:37.687Z,93106.38
2024-02-26T07:36:04.940Z,93108.38
2024-02-26T07:38:41.877Z,93110.28
2024-02-26T07:41:10.379Z,93113.97
2024-02-26T07:43:37.082Z,93116.34
2024-02-26T07:46:04.007Z,93113.94
2024-02-26T07:48:32.185Z,93113.34
2024-02-26T07:51:01.232Z,93109.44
2024-02-26T07:53:27.946Z,93106.72
2024-02-26T07:55:54.602Z,93112.00
2024-02-26T07:58:21.290Z,93120.78
2024-02-26T08:00:47.989Z,93109.44
2024-02-26T08:03:17.196Z,93110.41
2024-02-26T08:05:45.501Z,93103.22
2024-02-26T08:08:12.251Z,93107.63
2024-02-26T08:10:39.005Z,93111.84
2024-02-26T08:13:08.598Z,93107.97
2024-02-26T08:15:36.550Z,93112.25
2024-02-26T08:18:04.694Z,93106.91
2024-02-26T08:20:32.220Z,93104.28
2024-02-26T08:23:00.198Z,93107.31
2024-02-26T08:25:27.632Z,93104.19
2024-02-26T08:27:54.284Z,93109.84
2024-02-26T08:30:21.057Z,93097.97
2024-02-26T08:32:51.726Z,93100.84
2024-02-26T08:35:20.036Z,93109.06
2024-02-26T08:37:47.490Z,93104.31
2024-02-26T08:40:16.130Z,93117.94
2024-02-26T08:42:43.272Z,93104.63
2024-02-26T08:45:10.873Z,93112.47
2024-02-26T08:47:37.819Z,93110.41
2024-02-26T08:50:05.197Z,93102.72
2024-02-26T08:52:31.839Z,93108.91
2024-02-26T08:54:59.008Z,93099.69
2024-02-26T08:57:30.169Z,93093.75
2024-02-26T08:59:56.906Z,93086.09
2024-02-26T09:02:23.599Z,93102.25
2024-02-26T09:04:52.131Z,93091.38
2024-02-26T09:07:18.998Z,93085.84
2024-02-26T09:09:45.821Z,93094.50
2024-02-26T09:12:12.730Z,93082.75
2024-02-26T09:14:40.799Z,93073.44
2024-02-26T09:17:08.670Z,93078.34
2024-02-26T09:19:35.460Z,93076.09
2024-02-26T09:22:02.167Z,93063.16
2024-02-26T09:24:28.954Z,93072.25
2024-02-26T09:26:56.381Z,93072.66
2024-02-26T09:29:23.074Z,93071.81
2024-02-26T09:31:51.050Z,93074.78
2024-02-26T09:34:17.765Z,93075.03
2024-02-26T09:36:44.881Z,93082.69
2024-02-26T09:39:13.200Z,93077.94
2024-02-26T09:41:40.408Z,93081.25
2024-02-26T09:44:08.265Z,93084.00
2024-02-26T09:46:35.051Z,93083.09
2024-02-26T09:49:03.800Z,93083.34
2024-02-26T09:51:30.922Z,93079.28
2024-02-26T09:54:02.735Z,93080.22
2024-02-26T09:56:31.275Z,93078.34
2024-02-26T09:58:59.378Z,93084.75
2024-02-26T10:01:26.714Z,93078.31
2024-02-26T10:03:57.937Z,93080.69
2024-02-26T10:06:28.290Z,93067.31
2024-02-26T10:08:56.811Z,93068.78
2024-02-26T10:11:24.698Z,93072.41
2024-02-26T10:13:51.365Z,93063.91
2024-02-26T10:16:18.139Z,93058.66
2024-02-26T10:21:19.433Z,93057.28
2024-02-26T10:23:48.720Z,93056.47
2024-02-26T10:26:16.521Z,93054.75
2024-02-26T10:28:44.599Z,93060.72
2024-02-26T10:31:11.789Z,93062.63
2024-02-26T10:33:43.151Z,93064.38
2024-02-26T10:36:10.807Z,93061.78
2024-02-26T10:38:38.596Z,93065.03
2024-02-26T10:41:07.745Z,93064.22
2024-02-26T10:43:34.362Z,93077.41
2024-02-26T10:46:01.027Z,93085.78
2024-02-26T10:48:27.867Z,93083.25
2024-02-26T10:50:54.721Z,93087.69
2024-02-26T10:53:22.736Z,93085.19
2024-02-26T10:55:53.322Z,93097.19
2024-02-26T10:58:22.839Z,93082.91
2024-02-26T11:00:51.410Z,93078.97
2024-02-26T11:03:21.136Z,93084.53
2024-02-26T11:05:49.163Z,93059.03
2024-02-26T11:08:16.835Z,93072.75
2024-02-26T11:10:44.326Z,93067.41
2024-02-26T11:13:15.123Z,93055.47
2024-02-26T11:15:44.789Z,93060.59
2024-02-26T11:18:11.723Z,93054.38
2024-02-26T11:20:41.552Z,93054.41
2024-02-26T11:23:08.250Z,93038.41
2024-02-26T11:25:37.466Z,93038.31
2024-02-26T11:28:07.302Z,93040.25
2024-02-26T11:30:37.048Z,93044.88
2024-02-26T11:33:07.545Z,93041.97
2024-02-26T11:35:35.171Z,93040.66
2024-02-26T11:38:02.509Z,93046.16
2024-02-26T11:40:29.454Z,93041.31
2024-02-26T11:42:56.131Z,93025.09
2024-02-26T11:45:52.987Z,93033.09
2024-02-26T11:48:25.627Z,93049.91
2024-02-26T11:50:54.145Z,93038.59
2024-02-26T11:53:21.971Z,93040.59
2024-02-26T11:55:49.376Z,93051.66
2024-02-26T11:58:16.193Z,93049.63
2024-02-26T12:00:43.594Z,93058.81
2024-02-26T12:03:12.139Z,93046.41
2024-02-26T12:05:40.322Z,93060.50
2024-02-26T12:08:09.524Z,93054.97
2024-02-26T12:10:37.298Z,93065.66
2024-02-26T12:13:07.012Z,93067.19
2024-02-26T12:15:36.619Z,93051.28
2024-02-26T12:18:03.839Z,93067.28
2024-02-26T12:20:31.024Z,93056.66
2024-02-26T12:22:59.192Z,93058.75
2024-02-26T12:25:29.877Z,93054.00
2024-02-26T12:27:56.959Z,93063.22
2024-02-26T12:30:24.518Z,93070.00
2024-02-26T12:32:52.544Z,93075.97
2024-02-26T12:35:19.822Z,93087.94
2024-02-26T12:37:47.897Z,93086.47
2024-02-26T12:40:15.878Z,93076.97
2024-02-26T12:42:42.692Z,93073.97
2024-02-26T12:45:12.589Z,93085.31
2024-02-26T12:47:39.461Z,93091.03
2024-02-26T12:50:09.610Z,93101.34
2024-02-26T12:52:40.119Z,93103.00
2024-02-26T12:55:10.745Z,93105.38
2024-02-26T12:57:39.887Z,93101.19
2024-02-26T13:00:10.541Z,93103.06
2024-02-26T13:02:40.739Z,93104.97
2024-02-26T13:05:09.033Z,93109.19
2024-02-26T13:07:36.188Z,93105.53
2024-02-26T13:10:03.099Z,93115.19
2024-02-26T13:12:30.246Z,93124.22
2024-02-26T13:15:01.763Z,93129.53
2024-02-26T13:17:32.244Z,93138.38
2024-02-26T13:19:59.017Z,93142.09
2024-02-26T13:22:25.782Z,93144.91
2024-02-26T13:24:56.180Z,93154.19
2024-02-26T13:27:23.540Z,93148.16
2024-02-26T13:29:50.237Z,93155.63
2024-02-26T13:32:18.238Z,93159.25
2024-02-26T13:34:45.063Z,93159.22
2024-02-26T13:37:11.760Z,93171.78
2024-02-26T13:39:41.983Z,93174.09
2024-02-26T13:42:09.367Z,93174.97
2024-02-26T13:44:40.521Z,93174.41
2024-02-26T13:47:07.347Z,93181.88
2024-02-26T13:49:35.368Z,93181.63
2024-02-26T13:52:02.154Z,93187.19
2024-02-26T13:54:28.880Z,93189.75
2024-02-26T13:56:55.625Z,93196.66
2024-02-26T13:59:22.287Z,93194.56
2024-02-26T14:01:48.888Z,93198.41
2024-02-26T14:04:15.727Z,93198.78
2024-02-26T14:06:44.083Z,93207.56
2024-02-26T14:09:10.882Z,93209.13
2024-02-26T14:11:37.595Z,93223.34
2024-02-26T14:14:04.262Z,93219.25
2024-02-26T14:16:32.548Z,93227.16
2024-02-26T14:18:59.761Z,93233.06
2024-02-26T14:21:28.316Z,93237.28
2024-02-26T14:23:56.886Z,93235.19
2024-02-26T14:26:23.777Z,93248.75
2024-02-26T14:28:50.581Z,93246.03
2024-02-26T14:31:18.820Z,93251.72
2024-02-26T14:33:46.177Z,93258.69
2024-02-26T14:36:13.313Z,93257.25
2024-02-26T14:38:40.598Z,93266.03
2024-02-26T14:41:08.546Z,93271.94
2024-02-26T14:43:36.479Z,93275.16
2024-02-26T14:46:03.414Z,93272.25
2024-02-26T14:48:31.239Z,93275.38
2024-02-26T14:50:58.304Z,93267.19
2024-02-26T14:53:25.231Z,93270.63
2024-02-26T14:55:51.887Z,93271.69
2024-02-26T14:58:20.570Z,93280.16
2024-02-26T15:00:47.382Z,93279.63
2024-02-26T15:03:14.249Z,93275.16
2024-02-26T15:05:40.966Z,93277.50
2024-02-26T15:08:10.365Z,93279.88
2024-02-26T15:10:37.124Z,93269.81
2024-02-26T15:13:04.666Z,93273.00
2024-02-26T15:15:32.801Z,93273.25
2024-02-26T15:17:59.500Z,93265.56
2024-02-26T15:20:26.213Z,93270.31
2024-02-26T15:22:52.795Z,93271.09
2024-02-26T15:25:20.529Z,93269.56
2024-02-26T15:27:47.220Z,93267.19
2024-02-26T15:30:14.724Z,93271.16
2024-02-26T15:32:44.239Z,93261.88
2024-02-26T15:35:11.044Z,93262.69
2024-02-26T15:37:37.734Z,93257.66
2024-02-26T15:40:07.880Z,93260.09
2024-02-26T15:42:34.617Z,93249.50
2024-02-26T15:45:01.582Z,93244.50
2024-02-26T15:47:28.285Z,93246.34
2024-02-26T15:49:56.497Z,93244.22
2024-02-26T15:52:23.192Z,93242.13
2024-02-26T15:54:49.945Z,93238.69
2024-02-26T15:57:18.425Z,93241.84
2024-02-26T15:59:45.115Z,93242.13
2024-02-26T16:02:11.720Z,93249.78
2024-02-26T16:04:38.611Z,93244.75
2024-02-26T16:07:11.619Z,93250.56
2024-02-26T16:09:38.329Z,93250.56
2024-02-26T16:12:10.295Z,93248.47
2024-02-26T16:14:45.171Z,93252.41
2024-02-26T16:17:17.357Z,93258.22
2024-02-26T16:19:44.369Z,93264.31
2024-02-26T16:22:12.673Z,93267.47
2024-02-26T16:24:39.421Z,93270.91
2024-02-26T16:27:06.278Z,93267.72
2024-02-26T16:29:32.980Z,93268.44
2024-02-26T16:31:59.592Z,93278.25
2024-02-26T16:34:26.318Z,93275.91
2024-02-26T16:36:53.093Z,93279.09
2024-02-26T16:39:21.142Z,93289.38
2024-02-26T16:41:47.811Z,93289.91
2024-02-26T16:44:14.556Z,93281.72
2024-02-26T16:46:41.236Z,93289.66
2024-02-26T16:49:08.997Z,93293.59
2024-02-26T16:51:38.075Z,93307.59
2024-02-26T16:54:05.050Z,93306.28
2024-02-26T16:56:33.086Z,93303.63
2024-02-26T16:58:59.706Z,93297.06
2024-02-26T17:01:26.408Z,93297.25
2024-02-26T17:03:53.039Z,93294.91
2024-02-26T17:06:24.352Z,93294.38
2024-02-26T17:08:53.542Z,93308.22
2024-02-26T17:11:20.907Z,93313.38
2024-02-26T17:13:49.172Z,93312.84
2024-02-26T17:16:16.399Z,93319.44
2024-02-26T17:18:44.297Z,93315.50
2024-02-26T17:21:11.057Z,93316.81
2024-02-26T17:23:38.183Z,93318.16
2024-02-26T17:26:07.709Z,93323.97
2024-02-26T17:28:36.846Z,93325.03
2024-02-26T17:31:04.962Z,93327.41
2024-02-26T17:33:31.806Z,93321.59
2024-02-26T17:35:58.512Z,93323.97
2024-02-26T17:38:25.216Z,93324.50
2024-02-26T17:40:51.837Z,93332.16
2024-02-26T17:43:19.285Z,93341.94
2024-02-26T17:45:46.088Z,93348.03
2024-02-26T17:48:15.216Z,93353.84
2024-02-26T17:50:42.085Z,93349.06
2024-02-26T17:53:08.907Z,93354.84
2024-02-26T17:55:35.488Z,93359.06
2024-02-26T17:58:02.139Z,93368.59
2024-02-26T18:00:29.885Z,93364.09
2024-02-26T18:02:56.646Z,93361.91
2024-02-26T18:05:24.954Z,93373.56
2024-02-26T18:07:52.110Z,93381.78
2024-02-26T18:10:23.670Z,93383.06
2024-02-26T18:12:50.304Z,93376.72
2024-02-26T18:15:17.022Z,93378.06
2024-02-26T18:17:43.687Z,93380.78
2024-02-26T18:20:12.102Z,93393.25
2024-02-26T18:22:40.067Z,93394.47
2024-02-26T18:25:07.285Z,93397.41
2024-02-26T18:27:36.438Z,93404.13
2024-02-26T18:30:03.981Z,93393.88
2024-02-26T18:32:30.833Z,93389.66
2024-02-26T18:34:57.623Z,93388.34
2024-02-26T18:37:24.310Z,93399.94
2024-02-26T18:39:52.472Z,93403.16
2024-02-26T18:42:20.703Z,93401.31
2024-02-26T18:44:47.403Z,93400.47
2024-02-26T18:47:14.107Z,93404.16
2024-02-26T18:49:41.545Z,93405.25
2024-02-26T18:52:08.710Z,93406.59
2024-02-26T18:54:37.563Z,93414.47
2024-02-26T18:57:06.268Z,93405.97
2024-02-26T18:59:32.909Z,93410.47
2024-02-26T19:01:59.593Z,93412.09
2024-02-26T19:04:26.284Z,93419.38
2024-02-26T19:06:55.020Z,93425.31
2024-02-26T19:09:21.779Z,93434.25
2024-02-26T19:11:49.968Z,93434.78
2024-02-26T19:14:19.358Z,93422.16
2024-02-26T19:16:45.950Z,93421.09
2024-02-26T19:19:12.731Z,93433.19
2024-02-26T19:21:39.667Z,93434.78
2024-02-26T19:24:07.705Z,93426.34
2024-02-26T19:26:35.078Z,93438.88
2024-02-26T19:29:05.049Z,93432.59
2024-02-26T19:31:35.169Z,93448.03
2024-02-26T19:34:02.456Z,93450.13
2024-02-26T19:36:29.274Z,93455.59
2024-02-26T19:38:55.961Z,93461.53
2024-02-26T19:41:22.750Z,93466.91
2024-02-26T19:43:49.356Z,93463.25
2024-02-26T19:46:16.108Z,93467.09
2024-02-26T19:48:44.226Z,93465.28
2024-02-26T19:51:16.809Z,93463.09
2024-02-26T19:53:43.533Z,93457.88
2024-02-26T19:56:10.293Z,93454.53
2024-02-26T19:58:36.888Z,93463.00
2024-02-26T20:01:03.710Z,93467.41
2024-02-26T20:03:30.432Z,93463.56
2024-02-26T20:05:58.483Z,93461.69
2024-02-26T20:08:25.168Z,93466.81
2024-02-26T20:10:52.807Z,93465.69
2024-02-26T20:13:21.124Z,93468.63
2024-02-26T20:15:48.432Z,93457.25
2024-02-26T20:18:15.118Z,93457.84
2024-02-26T20:20:43.463Z,93463.09
2024-02-26T20:23:11.470Z,93465.53
2024-02-26T20:25:39.384Z,93471.84
2024-02-26T20:28:06.635Z,93473.34
2024-02-26T20:30:34.266Z,93484.69
2024-02-26T20:33:01.190Z,93481.59
2024-02-26T20:35:27.983Z,93478.66
2024-02-26T20:37:54.609Z,93482.38
2024-02-26T20:40:22.562Z,93481.50
2024-02-26T20:42:49.442Z,93487.06
2024-02-26T20:45:16.513Z,93502.13
2024-02-26T20:47:45.075Z,93506.31
2024-02-26T20:50:11.864Z,93509.97
2024-02-26T20:52:38.475Z,93516.84
2024-02-26T20:55:06.976Z,93510.41
2024-02-26T20:57:35.066Z,93517.25
2024-02-26T21:00:01.911Z,93514.13
2024-02-26T21:02:34.014Z,93516.84
2024-02-26T21:05:03.451Z,93505.63
2024-02-26T21:07:31.050Z,93511.75
2024-02-26T21:09:58.026Z,93504.28
2024-02-26T21:12:25.639Z,93504.84
2024-02-26T21:14:54.883Z,93506.88
2024-02-26T21:17:21.619Z,93511.38
2024-02-26T21:19:48.346Z,93510.34
2024-02-26T21:22:15.090Z,93515.88
2024-02-26T21:24:41.961Z,93517.66
2024-02-26T21:27:08.735Z,93512.03
2024-02-26T21:29:36.964Z,93516.34
2024-02-26T21:32:05.966Z,93524.16
2024-02-26T21:34:32.672Z,93524.72
2024-02-26T21:36:59.440Z,93534.84
2024-02-26T21:39:26.119Z,93528.31
2024-02-26T21:41:52.884Z,93531.88
2024-02-26T21:44:19.544Z,93539.13
2024-02-26T21:46:47.949Z,93550.31
2024-02-26T21:49:16.571Z,93550.56
2024-02-26T21:51:45.003Z,93550.63
2024-02-26T21:54:12.591Z,93550.91
2024-02-26T21:56:39.610Z,93558.19
2024-02-26T21:59:07.704Z,93567.47
2024-02-26T22:01:34.648Z,93574.34
2024-02-26T22:04:01.417Z,93571.00
2024-02-26T22:06:29.672Z,93576.25
2024-02-26T22:08:56.639Z,93576.94
2024-02-26T22:11:24.326Z,93580.09
2024-02-26T22:13:51.571Z,93580.75
2024-02-26T22:16:18.220Z,93587.66
2024-02-26T22:18:46.026Z,93594.31
2024-02-26T22:21:13.170Z,93594.72
2024-02-26T22:23:41.364Z,93594.81
2024-02-26T22:26:08.039Z,93602.84
2024-02-26T22:28:34.689Z,93609.69
2024-02-26T22:31:01.623Z,93621.53
2024-02-26T22:33:28.636Z,93621.28
2024-02-26T22:35:55.458Z,93618.69
2024-02-26T22:38:22.155Z,93616.66
2024-02-26T22:40:50.111Z,93609.22
2024-02-26T22:43:16.734Z,93622.03
2024-02-26T22:45:43.374Z,93630.56
2024-02-26T22:48:10.622Z,93632.88
2024-02-26T22:50:37.615Z,93630.56
2024-02-26T22:53:04.493Z,93616.16
2024-02-26T22:55:31.140Z,93620.09
2024-02-26T22:57:59.099Z,93631.34
2024-02-26T23:00:27.930Z,93637.72
2024-02-26T23:02:55.033Z,93640.13
2024-02-26T23:05:23.373Z,93642.69
2024-02-26T23:07:50.235Z,93644.94
2024-02-26T23:10:17.116Z,93651.09
2024-02-26T23:12:44.348Z,93654.50
2024-02-26T23:15:12.984Z,93658.59
2024-02-26T23:17:40.000Z,93653.34
2024-02-26T23:20:11.237Z,93669.75
2024-02-26T23:22:38.864Z,93669.03
2024-02-26T23:25:08.790Z,93654.69
2024-02-26T23:27:35.799Z,93662.50
2024-02-26T23:30:02.985Z,93672.41
2024-02-26T23:32:31.122Z,93678.69
2024-02-26T23:34:58.004Z,93681.91
2024-02-26T23:37:24.665Z,93680.91
2024-02-26T23:39:51.300Z,93679.78
2024-02-26T23:42:18.038Z,93680.25
2024-02-26T23:44:44.627Z,93674.66
2024-02-26T23:47:11.233Z,93683.56
2024-02-26T23:49:39.163Z,93676.47
2024-02-26T23:52:06.010Z,93687.66
2024-02-26T23:54:32.682Z,93689.00
2024-02-26T23:56:59.397Z,93694.03
2024-02-26T23:59:25.999Z,93699.59
